Makita — V2ET2 — position and weather

sailwx.info

Track history (hours):
 
Tides and Currents Weather Stations Pressure Air Temp Water Temp Dewpoint Dewpoint Depression Visibility Wind Speed Wind Dir Waves Ship Positions

Makita

Last reported at 2014-Oct-31 08:14 UTC. Time now 2014-Oct-31 13:01 UTC.
Position N 31°17' E 121°49'.

Length 260 m; draft 9.8 m.

Type: Cargo ship. MMSI: 305543000.

Date/timePositionNaut miles runAvg speedWind from/ knotsBaromVisibWave heightAir tempDewpointWater temp
2014-Oct-31 08:14N 31°17' E 121°49'8 1.9
2014-Oct-31 04:11N 31°20' E 121°40'0 0.0
2014-Oct-31 03:29N 31°20' E 121°40'0 0.0
2014-Oct-30 20:23N 31°20' E 121°40'0 0.0
2014-Oct-30 19:29N 31°20' E 121°40'0 0.0
2014-Oct-30 16:23N 31°20' E 121°40'0 0.0
2014-Oct-30 15:05N 31°20' E 121°40'0 0.0
2014-Oct-30 14:23N 31°20' E 121°40'0 0.0
2014-Oct-30 12:05N 31°20' E 121°40'0 0.1
2014-Oct-30 11:29N 31°20' E 121°40'0 0.1
2014-Oct-30 08:27N 31°20' E 121°40'2 2.7
2014-Oct-30 07:32N 31°20' E 121°43'1210.7
2014-Oct-30 06:26N 31°16' E 121°56'112 2.3
2014-Oct-28 06:21N 29°32' E 122°44'35313.2
2014-Oct-27 03:33N 24°32' E 119°14'4614.1
2014-Oct-27 00:18N 24°05' E 118°34'1114.0
2014-Oct-26 23:33N 23°58' E 118°25'1413.5
2014-Oct-26 22:33N 23°50' E 118°13'1413.5
2014-Oct-26 21:29N 23°41' E 118°00'1413.8
2014-Oct-26 20:30N 23°33' E 117°49'1313.6
2014-Oct-26 19:32N 23°23' E 117°40'1313.3
2014-Oct-26 18:33N 23°11' E 117°33'1413.3
2014-Oct-26 17:30N 22°59' E 117°25'1313.3
2014-Oct-26 16:30N 22°47' E 117°19'1313.3
2014-Oct-26 15:33N 22°37' E 117°11'1413.6
2014-Oct-26 14:31N 22°25' E 117°03'1413.6
2014-Oct-26 13:28N 22°13' E 116°55'3113.7
2014-Oct-26 11:11N 21°46' E 116°38'913.6
2014-Oct-26 10:31N 21°38' E 116°32'1313.8
2014-Oct-26 09:33N 21°27' E 116°25'1413.5
2014-Oct-26 08:31N 21°15' E 116°18'1413.4
2014-Oct-26 07:31N 21°03' E 116°10'  
2014-Oct-22 01:17N 01°15' E 104°03'5 1.8
2014-Oct-21 22:33N 01°17' E 103°59'0 0.1
2014-Oct-21 20:33N 01°17' E 103°59'0 0.1
2014-Oct-21 19:27N 01°17' E 103°59'0 0.0
2014-Oct-21 18:21N 01°17' E 103°59'0 0.0
2014-Oct-21 17:33N 01°17' E 103°59'0 0.1
2014-Oct-21 16:09N 01°17' E 103°59'1 0.4
2014-Oct-21 14:31N 01°17' E 103°58'6 5.7
2014-Oct-21 13:33N 01°13' E 103°54'5 5.4
2014-Oct-21 12:32N 01°12' E 103°49'6 5.6
2014-Oct-21 11:24N 01°17' E 103°45'1 0.3
2014-Oct-21 09:19N 01°17' E 103°46'  
Track history (hours):
 
Tides and Currents Weather Stations Pressure Air Temp Water Temp Dewpoint Dewpoint Depression Visibility Wind Speed Wind Dir Waves Ship Positions

Makita

Last reported at 2014-Oct-31 08:14 UTC. Time now 2014-Oct-31 13:01 UTC.
Position N 31°17' E 121°49'.

Length 260 m; draft 9.8 m.

Type: Cargo ship. MMSI: 305543000.

Date/timePositionNaut miles runAvg speedWind from/ knotsBaromVisibWave heightAir tempDewpointWater temp
2014-Oct-31 08:14N 31°17' E 121°49'8 1.9
2014-Oct-31 04:11N 31°20' E 121°40'0 0.0
2014-Oct-31 03:29N 31°20' E 121°40'0 0.0
2014-Oct-30 20:23N 31°20' E 121°40'0 0.0
2014-Oct-30 19:29N 31°20' E 121°40'0 0.0
2014-Oct-30 16:23N 31°20' E 121°40'0 0.0
2014-Oct-30 15:05N 31°20' E 121°40'0 0.0
2014-Oct-30 14:23N 31°20' E 121°40'0 0.0
2014-Oct-30 12:05N 31°20' E 121°40'0 0.1
2014-Oct-30 11:29N 31°20' E 121°40'0 0.1
2014-Oct-30 08:27N 31°20' E 121°40'2 2.7
2014-Oct-30 07:32N 31°20' E 121°43'1210.7
2014-Oct-30 06:26N 31°16' E 121°56'112 2.3
2014-Oct-28 06:21N 29°32' E 122°44'35313.2
2014-Oct-27 03:33N 24°32' E 119°14'4614.1
2014-Oct-27 00:18N 24°05' E 118°34'1114.0
2014-Oct-26 23:33N 23°58' E 118°25'1413.5
2014-Oct-26 22:33N 23°50' E 118°13'1413.5
2014-Oct-26 21:29N 23°41' E 118°00'1413.8
2014-Oct-26 20:30N 23°33' E 117°49'1313.6
2014-Oct-26 19:32N 23°23' E 117°40'1313.3
2014-Oct-26 18:33N 23°11' E 117°33'1413.3
2014-Oct-26 17:30N 22°59' E 117°25'1313.3
2014-Oct-26 16:30N 22°47' E 117°19'1313.3
2014-Oct-26 15:33N 22°37' E 117°11'1413.6
2014-Oct-26 14:31N 22°25' E 117°03'1413.6
2014-Oct-26 13:28N 22°13' E 116°55'3113.7
2014-Oct-26 11:11N 21°46' E 116°38'913.6
2014-Oct-26 10:31N 21°38' E 116°32'1313.8
2014-Oct-26 09:33N 21°27' E 116°25'1413.5
2014-Oct-26 08:31N 21°15' E 116°18'1413.4
2014-Oct-26 07:31N 21°03' E 116°10'  
2014-Oct-22 01:17N 01°15' E 104°03'5 1.8
2014-Oct-21 22:33N 01°17' E 103°59'0 0.1
2014-Oct-21 20:33N 01°17' E 103°59'0 0.1
2014-Oct-21 19:27N 01°17' E 103°59'0 0.0
2014-Oct-21 18:21N 01°17' E 103°59'0 0.0
2014-Oct-21 17:33N 01°17' E 103°59'0 0.1
2014-Oct-21 16:09N 01°17' E 103°59'1 0.4
2014-Oct-21 14:31N 01°17' E 103°58'6 5.7
2014-Oct-21 13:33N 01°13' E 103°54'5 5.4
2014-Oct-21 12:32N 01°12' E 103°49'6 5.6
2014-Oct-21 11:24N 01°17' E 103°45'1 0.3
2014-Oct-21 09:19N 01°17' E 103°46'  

Dump ship's entire track history